Time;durP1;ratioP1;P1;durP2;ratioP2;P2;SDS_P1;SDS_P2;PMS_P1;PMS_P2;Temp;Humidity;BMP_temperature;BMP_pressure;BME280_temperature;BME280_humidity;BME280_pressure;Samples;Min_cycle;Max_cycle;Signal;HPM_P1;HPM_P2
2022/03/01 00:02:08;;;;;;;;;;;0.80;96.30;;;;;;5078535;28;20041;-79
2022/03/01 00:04:34;;;;;;;;;;;0.90;96.40;;;;;;5078349;28;20359;-79
2022/03/01 00:07:00;;;;;;;;;;;0.90;96.20;;;;;;5079040;28;19939;-79
2022/03/01 00:09:25;;;;;;;;;;;0.80;96.20;;;;;;5081901;28;19914;-79
2022/03/01 00:11:51;;;;;;;;;;;0.80;95.70;;;;;;5082656;28;19912;-79
2022/03/01 00:14:16;;;;;;;;;;;1.00;96.10;;;;;;5081545;28;19935;-79
2022/03/01 00:16:42;;;;;;;;;;;0.70;96.10;;;;;;5082335;28;19908;-80
2022/03/01 00:19:07;;;;;;;;;;;1.80;96.60;;;;;;5082632;28;20170;-79
2022/03/01 00:21:33;;;;;;;;;;;0.70;96.50;;;;;;5082220;28;19951;-80
2022/03/01 00:23:59;;;;;;;;;;;0.70;96.60;;;;;;5082362;28;20200;-79
2022/03/01 00:26:24;;;;;;;;;;;0.70;96.60;;;;;;5082025;28;19908;-79
2022/03/01 00:28:50;;;;;;;;;;;0.80;96.90;;;;;;5082431;28;20591;-80
2022/03/01 00:31:16;;;;;;;;;;;0.80;96.80;;;;;;5082352;28;19961;-79
2022/03/01 00:33:41;;;;;;;;;;;1.30;97.00;;;;;;5081977;28;20172;-79
2022/03/01 00:36:07;;;;;;;;;;;0.80;96.90;;;;;;5082243;28;19912;-79
2022/03/01 00:38:33;;;;;;;;;;;0.80;96.00;;;;;;5082561;28;19955;-79
2022/03/01 00:40:58;;;;;;;;;;;0.90;95.40;;;;;;5082460;28;19938;-80
2022/03/01 00:43:24;;;;;;;;;;;0.90;95.40;;;;;;5082088;28;19915;-80
2022/03/01 00:45:50;;;;;;;;;;;0.90;95.30;;;;;;5081703;28;20494;-79
2022/03/01 00:48:16;;;;;;;;;;;0.90;95.30;;;;;;5082210;28;19918;-79
2022/03/01 00:50:42;;;;;;;;;;;0.90;94.70;;;;;;5081070;28;20011;-80
2022/03/01 00:53:07;;;;;;;;;;;0.90;94.70;;;;;;5081798;28;20387;-80
2022/03/01 00:55:33;;;;;;;;;;;0.80;94.80;;;;;;5080493;28;19936;-80
2022/03/01 00:57:59;;;;;;;;;;;0.80;95.20;;;;;;5080764;28;19919;-79
2022/03/01 01:00:24;;;;;;;;;;;0.70;95.00;;;;;;5082130;28;20176;-79
2022/03/01 01:02:50;;;;;;;;;;;0.80;95.30;;;;;;5081626;28;19970;-80
2022/03/01 01:05:15;;;;;;;;;;;0.80;95.50;;;;;;5082503;28;19908;-80
2022/03/01 01:07:41;;;;;;;;;;;0.80;95.20;;;;;;5081692;28;19912;-79
2022/03/01 01:10:07;;;;;;;;;;;1.50;95.00;;;;;;5080028;28;19912;-79
2022/03/01 01:12:35;;;;;;;;;;;0.80;94.50;;;;;;5081763;28;19916;-80
2022/03/01 01:15:01;;;;;;;;;;;0.90;94.80;;;;;;5082497;28;20282;-79
2022/03/01 01:17:26;;;;;;;;;;;0.80;94.90;;;;;;5080598;28;19908;-80
2022/03/01 01:19:52;;;;;;;;;;;0.80;95.00;;;;;;5089527;28;20347;-80
2022/03/01 01:25:03;;;;;;;;;;;1.20;95.60;;;;;;5082055;28;19970;-80
2022/03/01 01:27:28;;;;;;;;;;;0.70;95.60;;;;;;5081496;28;19923;-79
2022/03/01 01:29:54;;;;;;;;;;;0.80;95.70;;;;;;5081471;28;19916;-79
2022/03/01 01:32:20;;;;;;;;;;;0.80;95.70;;;;;;5081155;28;19947;-80
2022/03/01 01:34:45;;;;;;;;;;;0.70;95.60;;;;;;5080972;28;19912;-79
2022/03/01 01:37:11;;;;;;;;;;;0.70;95.80;;;;;;5081780;28;19976;-79
2022/03/01 01:39:36;;;;;;;;;;;0.70;95.90;;;;;;5083342;28;20432;-80
2022/03/01 01:42:03;;;;;;;;;;;0.70;95.80;;;;;;5087948;28;19919;-80
2022/03/01 01:44:29;;;;;;;;;;;0.60;95.70;;;;;;5089039;28;19920;-79
2022/03/01 01:46:54;;;;;;;;;;;0.60;96.00;;;;;;5088029;28;19908;-79
2022/03/01 01:49:20;;;;;;;;;;;0.60;96.20;;;;;;5086952;28;19995;-79
2022/03/01 01:51:45;;;;;;;;;;;0.60;96.40;;;;;;5081186;28;20216;-79
2022/03/01 01:54:12;;;;;;;;;;;0.50;96.90;;;;;;5081683;28;20322;-79
2022/03/01 01:56:38;;;;;;;;;;;0.50;97.20;;;;;;5086186;28;20269;-80
2022/03/01 01:59:03;;;;;;;;;;;0.30;97.60;;;;;;5088652;28;19908;-79
2022/03/01 02:01:29;;;;;;;;;;;0.30;97.60;;;;;;5087100;28;19943;-80
2022/03/01 02:03:54;;;;;;;;;;;0.30;97.70;;;;;;5088569;28;20124;-80
2022/03/01 02:06:20;;;;;;;;;;;0.20;98.00;;;;;;5089258;28;19908;-79
2022/03/01 02:08:46;;;;;;;;;;;2.00;98.70;;;;;;5080406;28;19908;-79
2022/03/01 02:11:11;;;;;;;;;;;1.20;98.70;;;;;;5080595;28;20330;-79
2022/03/01 02:13:37;;;;;;;;;;;0.00;98.70;;;;;;5080416;28;20100;-80
2022/03/01 02:16:03;;;;;;;;;;;-0.10;98.90;;;;;;5080683;28;19908;-78
2022/03/01 02:18:28;;;;;;;;;;;-0.20;99.00;;;;;;5080153;28;19912;-79
2022/03/01 02:20:54;;;;;;;;;;;-0.20;99.30;;;;;;5080127;28;19913;-78
2022/03/01 02:23:20;;;;;;;;;;;-0.20;99.50;;;;;;5080360;28;19912;-79
2022/03/01 02:25:45;;;;;;;;;;;-0.10;99.50;;;;;;5080029;28;20291;-79
2022/03/01 02:28:11;;;;;;;;;;;-0.20;99.40;;;;;;5080379;28;20053;-79
2022/03/01 02:30:36;;;;;;;;;;;-0.20;99.20;;;;;;5079900;28;19916;-80
2022/03/01 02:33:02;;;;;;;;;;;-0.10;99.10;;;;;;5079956;28;20462;-79
2022/03/01 02:35:28;;;;;;;;;;;1.00;99.40;;;;;;5079782;28;20314;-79
2022/03/01 02:37:53;;;;;;;;;;;0.50;99.30;;;;;;5079593;28;19915;-80
2022/03/01 02:40:19;;;;;;;;;;;0.00;99.30;;;;;;5079322;28;19909;-79
2022/03/01 02:42:45;;;;;;;;;;;0.20;99.40;;;;;;5078327;28;19919;-79
2022/03/01 02:45:13;;;;;;;;;;;-0.20;99.20;;;;;;5078960;28;19947;-79
2022/03/01 02:47:39;;;;;;;;;;;-0.20;99.40;;;;;;5079507;28;20149;-79
2022/03/01 02:50:06;;;;;;;;;;;-0.20;99.30;;;;;;5079457;28;20341;-79
2022/03/01 02:52:32;;;;;;;;;;;-0.20;99.40;;;;;;5079541;28;19919;-79
2022/03/01 02:54:57;;;;;;;;;;;-0.20;99.40;;;;;;5079266;28;20150;-79
2022/03/01 02:57:24;;;;;;;;;;;0.40;99.50;;;;;;5079799;28;19908;-80
2022/03/01 02:59:54;;;;;;;;;;;-0.10;99.30;;;;;;5079379;28;20172;-79
2022/03/01 03:02:23;;;;;;;;;;;0.00;99.20;;;;;;5079767;28;20030;-79
2022/03/01 03:04:48;;;;;;;;;;;0.50;99.00;;;;;;5079594;28;19912;-79
2022/03/01 03:07:14;;;;;;;;;;;-1.10;98.50;;;;;;5077825;28;19908;-79
2022/03/01 03:09:40;;;;;;;;;;;1.20;99.10;;;;;;5078992;28;19920;-79
2022/03/01 03:12:06;;;;;;;;;;;0.90;99.30;;;;;;5079270;28;19912;-79
2022/03/01 03:14:32;;;;;;;;;;;0.00;99.10;;;;;;5079503;28;19918;-79
2022/03/01 03:16:57;;;;;;;;;;;0.00;99.10;;;;;;5077745;28;19916;-79
2022/03/01 03:19:24;;;;;;;;;;;-0.20;99.20;;;;;;5079241;28;19912;-80
2022/03/01 03:21:50;;;;;;;;;;;0.00;99.60;;;;;;5078342;28;20451;-79
2022/03/01 03:24:15;;;;;;;;;;;-0.10;99.80;;;;;;5080216;28;20142;-79
2022/03/01 03:26:41;;;;;;;;;;;-0.20;99.90;;;;;;5080082;28;20355;-79
2022/03/01 03:29:10;;;;;;;;;;;-0.20;99.90;;;;;;5081051;28;19908;-80
2022/03/01 03:31:37;;;;;;;;;;;0.10;99.90;;;;;;5087590;28;19937;-79
2022/03/01 03:34:03;;;;;;;;;;;-0.20;99.90;;;;;;5082821;28;19919;-79
2022/03/01 03:36:29;;;;;;;;;;;-0.20;99.90;;;;;;5080231;28;19962;-79
2022/03/01 03:38:55;;;;;;;;;;;-0.20;99.90;;;;;;5077702;28;19947;-79
2022/03/01 03:41:20;;;;;;;;;;;-0.20;99.90;;;;;;5080763;28;20099;-79
2022/03/01 03:43:46;;;;;;;;;;;-1.40;99.90;;;;;;5083378;28;20153;-79
2022/03/01 03:46:12;;;;;;;;;;;-0.10;99.90;;;;;;5081778;28;19927;-79
2022/03/01 03:48:37;;;;;;;;;;;0.20;99.90;;;;;;5083364;28;20588;-79
2022/03/01 03:51:03;;;;;;;;;;;-0.20;99.90;;;;;;5083091;28;19927;-79
2022/03/01 03:53:28;;;;;;;;;;;-0.20;99.90;;;;;;5082903;28;19916;-79
2022/03/01 03:55:54;;;;;;;;;;;-0.10;99.90;;;;;;5080832;28;20184;-79
2022/03/01 03:58:19;;;;;;;;;;;-0.10;99.90;;;;;;5082539;28;19909;-79
2022/03/01 04:00:45;;;;;;;;;;;0.00;99.90;;;;;;5082860;28;19999;-79
2022/03/01 04:03:11;;;;;;;;;;;0.10;99.90;;;;;;5082524;28;20292;-79
2022/03/01 04:05:36;;;;;;;;;;;0.00;99.90;;;;;;5081496;28;20111;-79
2022/03/01 04:08:02;;;;;;;;;;;0.00;99.70;;;;;;5081245;28;20563;-79
2022/03/01 04:10:28;;;;;;;;;;;0.00;99.80;;;;;;5088891;28;20200;-80
2022/03/01 04:12:54;;;;;;;;;;;-1.00;99.90;;;;;;5089636;28;19916;-79
2022/03/01 04:15:19;;;;;;;;;;;0.10;99.90;;;;;;5089423;28;19948;-79
2022/03/01 04:17:45;;;;;;;;;;;0.10;99.70;;;;;;5089790;28;19985;-79
2022/03/01 04:20:11;;;;;;;;;;;0.10;99.70;;;;;;5089628;28;20447;-79
2022/03/01 04:22:37;;;;;;;;;;;0.10;99.90;;;;;;5090710;28;19912;-79
2022/03/01 04:25:03;;;;;;;;;;;0.10;99.80;;;;;;5088782;28;20464;-80
2022/03/01 04:27:28;;;;;;;;;;;0.10;99.90;;;;;;5090180;28;19923;-80
2022/03/01 04:29:54;;;;;;;;;;;0.10;99.90;;;;;;5089297;28;19916;-79
2022/03/01 04:32:19;;;;;;;;;;;0.10;99.60;;;;;;5083373;28;19910;-80
2022/03/01 04:34:45;;;;;;;;;;;0.10;99.40;;;;;;5082938;28;19951;-79
2022/03/01 04:37:10;;;;;;;;;;;1.00;99.60;;;;;;5082884;28;20093;-79
2022/03/01 04:39:36;;;;;;;;;;;0.00;99.60;;;;;;5082843;28;19999;-79
2022/03/01 04:42:04;;;;;;;;;;;0.00;99.90;;;;;;5082817;28;20259;-79
2022/03/01 04:44:31;;;;;;;;;;;-0.10;99.90;;;;;;5082767;28;19939;-79
2022/03/01 04:46:56;;;;;;;;;;;0.90;99.90;;;;;;5083417;28;20270;-79
2022/03/01 04:49:22;;;;;;;;;;;-0.10;99.90;;;;;;5089714;28;19955;-79
2022/03/01 04:51:48;;;;;;;;;;;-0.10;99.90;;;;;;5089851;28;19920;-81
2022/03/01 04:54:13;;;;;;;;;;;-0.10;99.90;;;;;;5090544;28;19908;-79
2022/03/01 04:56:39;;;;;;;;;;;-0.30;99.90;;;;;;5090255;28;19908;-80
2022/03/01 04:59:04;;;;;;;;;;;-0.30;99.90;;;;;;5083295;28;20579;-79
2022/03/01 05:01:30;;;;;;;;;;;-0.30;99.90;;;;;;5082088;28;19952;-79
2022/03/01 05:03:55;;;;;;;;;;;-0.40;99.90;;;;;;5080406;28;20515;-79
2022/03/01 05:06:21;;;;;;;;;;;0.50;99.90;;;;;;5081752;28;19908;-80
2022/03/01 05:08:47;;;;;;;;;;;-0.50;99.90;;;;;;5081200;28;19908;-79
2022/03/01 05:11:12;;;;;;;;;;;0.40;99.90;;;;;;5081022;28;19927;-79
2022/03/01 05:13:38;;;;;;;;;;;-0.60;99.90;;;;;;5081087;28;19919;-79
2022/03/01 05:16:03;;;;;;;;;;;-0.60;99.90;;;;;;5080849;28;19914;-79
2022/03/01 05:18:29;;;;;;;;;;;-0.70;99.90;;;;;;5080812;28;19915;-79
2022/03/01 05:20:55;;;;;;;;;;;-0.70;99.90;;;;;;5081097;28;20294;-79
2022/03/01 05:23:20;;;;;;;;;;;-0.70;99.90;;;;;;5080927;28;20425;-79
2022/03/01 05:25:46;;;;;;;;;;;-0.70;99.90;;;;;;5079669;28;19915;-79
2022/03/01 05:28:11;;;;;;;;;;;-0.60;99.90;;;;;;5081405;28;19912;-80
2022/03/01 05:30:37;;;;;;;;;;;-0.70;99.90;;;;;;5081303;28;19920;-79
2022/03/01 05:33:03;;;;;;;;;;;-0.60;99.90;;;;;;5081866;28;20295;-80
2022/03/01 05:35:30;;;;;;;;;;;0.50;99.90;;;;;;5081293;28;20117;-79
2022/03/01 05:37:57;;;;;;;;;;;-0.60;99.90;;;;;;5081283;28;19915;-79
2022/03/01 05:40:28;;;;;;;;;;;0.20;99.90;;;;;;5079816;28;19908;-79
2022/03/01 05:42:53;;;;;;;;;;;-0.60;99.90;;;;;;5085077;28;19987;-79
2022/03/01 05:45:20;;;;;;;;;;;-0.60;99.90;;;;;;5089081;28;20226;-79
2022/03/01 05:47:45;;;;;;;;;;;-0.10;99.90;;;;;;5080791;28;20084;-79
2022/03/01 05:50:11;;;;;;;;;;;-0.60;99.90;;;;;;5079641;28;19920;-79
2022/03/01 05:52:37;;;;;;;;;;;-0.60;99.90;;;;;;5080821;28;19920;-80
2022/03/01 05:55:04;;;;;;;;;;;-0.30;99.90;;;;;;5080071;28;19915;-80
2022/03/01 05:57:30;;;;;;;;;;;-0.50;99.90;;;;;;5080571;28;19908;-80
2022/03/01 05:59:56;;;;;;;;;;;-0.50;99.90;;;;;;5080751;28;20180;-80
2022/03/01 06:02:22;;;;;;;;;;;1.40;99.90;;;;;;5078746;28;19908;-80
2022/03/01 06:04:47;;;;;;;;;;;-0.40;99.90;;;;;;5078080;28;19921;-80
2022/03/01 06:07:13;;;;;;;;;;;0.00;99.90;;;;;;5078847;28;20603;-80
2022/03/01 06:09:38;;;;;;;;;;;-0.30;99.90;;;;;;5080591;28;20208;-80
2022/03/01 06:12:04;;;;;;;;;;;-0.20;99.90;;;;;;5080629;28;19912;-79
2022/03/01 06:14:30;;;;;;;;;;;-0.10;99.90;;;;;;5078760;28;20418;-79
2022/03/01 06:16:55;;;;;;;;;;;-0.10;99.90;;;;;;5080064;28;19915;-79
2022/03/01 06:19:21;;;;;;;;;;;0.00;99.90;;;;;;5080022;28;20569;-80
2022/03/01 06:21:47;;;;;;;;;;;0.00;99.90;;;;;;5080576;28;19916;-80
2022/03/01 06:24:14;;;;;;;;;;;0.10;99.90;;;;;;5079221;28;20157;-79
2022/03/01 06:26:51;;;;;;;;;;;0.40;99.90;;;;;;5096800;27;19912;-81
2022/03/01 06:29:16;;;;;;;;;;;0.20;99.90;;;;;;5097478;28;19916;-81
2022/03/01 06:31:42;;;;;;;;;;;0.20;99.90;;;;;;5095791;28;20283;-80
2022/03/01 06:34:07;;;;;;;;;;;0.70;99.90;;;;;;5097441;28;19998;-80
2022/03/01 06:36:33;;;;;;;;;;;0.50;99.90;;;;;;5097471;28;19955;-81
2022/03/01 06:38:58;;;;;;;;;;;1.30;99.90;;;;;;5097153;28;20489;-81
2022/03/01 06:41:24;;;;;;;;;;;0.30;99.90;;;;;;5097620;28;19915;-77
2022/03/01 06:43:50;;;;;;;;;;;0.20;99.90;;;;;;5095273;28;19935;-79
2022/03/01 06:46:15;;;;;;;;;;;0.20;99.90;;;;;;5096791;28;20390;-81
2022/03/01 06:48:41;;;;;;;;;;;0.40;99.90;;;;;;5096866;28;19939;-79
2022/03/01 06:51:09;;;;;;;;;;;0.40;99.90;;;;;;5097002;28;20217;-78
2022/03/01 06:53:35;;;;;;;;;;;0.50;99.90;;;;;;5097303;28;20274;-79
2022/03/01 06:56:01;;;;;;;;;;;0.60;99.90;;;;;;5096293;28;19924;-79
2022/03/01 06:58:27;;;;;;;;;;;0.70;99.90;;;;;;5098675;28;20595;-79
2022/03/01 07:00:53;;;;;;;;;;;2.90;99.90;;;;;;5099248;28;19912;-79
2022/03/01 07:03:18;;;;;;;;;;;0.80;99.90;;;;;;5099291;28;20028;-80
2022/03/01 07:05:44;;;;;;;;;;;0.90;99.90;;;;;;5099384;28;19923;-82
2022/03/01 07:08:10;;;;;;;;;;;0.90;99.90;;;;;;5098429;28;20414;-81
2022/03/01 07:10:36;;;;;;;;;;;0.80;99.90;;;;;;5097668;28;20222;-81
2022/03/01 07:13:01;;;;;;;;;;;0.80;99.90;;;;;;5098806;28;19951;-80
2022/03/01 07:15:27;;;;;;;;;;;0.80;99.90;;;;;;5099242;28;19929;-81
2022/03/01 07:17:52;;;;;;;;;;;0.90;99.90;;;;;;5099135;28;19916;-81
2022/03/01 07:20:18;;;;;;;;;;;1.00;99.90;;;;;;5098632;28;20085;-80
2022/03/01 07:22:44;;;;;;;;;;;0.90;99.90;;;;;;5099821;28;20151;-81
2022/03/01 07:25:09;;;;;;;;;;;1.00;99.90;;;;;;5097625;28;20276;-81
2022/03/01 07:27:36;;;;;;;;;;;1.00;99.90;;;;;;5096843;28;19908;-80
2022/03/01 07:30:02;;;;;;;;;;;1.10;99.90;;;;;;5097063;28;20455;-81
2022/03/01 07:32:28;;;;;;;;;;;1.10;99.40;;;;;;5096668;28;20406;-81
2022/03/01 07:34:53;;;;;;;;;;;1.10;99.50;;;;;;5096413;28;19935;-78
2022/03/01 07:37:19;;;;;;;;;;;1.10;99.20;;;;;;5088057;28;19916;-81
2022/03/01 07:39:45;;;;;;;;;;;1.20;99.30;;;;;;5083650;28;20024;-81
2022/03/01 07:42:10;;;;;;;;;;;1.10;99.10;;;;;;5084272;28;19908;-80
2022/03/01 07:44:37;;;;;;;;;;;1.30;99.30;;;;;;5083894;28;19912;-80
2022/03/01 07:47:07;;;;;;;;;;;1.40;99.00;;;;;;5083234;28;19908;-80
2022/03/01 07:49:33;;;;;;;;;;;1.80;99.00;;;;;;5084702;28;19908;-81
2022/03/01 07:51:58;;;;;;;;;;;1.50;98.60;;;;;;5084679;28;19919;-80
2022/03/01 07:54:24;;;;;;;;;;;1.40;95.50;;;;;;5084690;28;19909;-80
2022/03/01 07:56:49;;;;;;;;;;;1.30;98.40;;;;;;5087071;28;19922;-80
2022/03/01 07:59:15;;;;;;;;;;;1.50;98.50;;;;;;5090935;28;19908;-81
2022/03/01 08:01:41;;;;;;;;;;;1.70;98.10;;;;;;5085827;28;19912;-79
2022/03/01 08:04:07;;;;;;;;;;;1.60;97.60;;;;;;5090159;28;19908;-80
2022/03/01 08:06:32;;;;;;;;;;;1.60;97.70;;;;;;5089466;28;19916;-80
2022/03/01 08:08:58;;;;;;;;;;;1.70;96.90;;;;;;5088997;28;20072;-80
2022/03/01 08:11:23;;;;;;;;;;;2.10;96.10;;;;;;5088132;28;20018;-80
2022/03/01 08:13:49;;;;;;;;;;;2.00;93.50;;;;;;5083510;28;19931;-79
2022/03/01 08:16:15;;;;;;;;;;;2.10;92.90;;;;;;5083240;28;19909;-80
2022/03/01 08:18:41;;;;;;;;;;;2.00;90.40;;;;;;5082458;28;19916;-80
2022/03/01 08:21:07;;;;;;;;;;;2.20;90.40;;;;;;5082080;28;20429;-80
2022/03/01 08:23:33;;;;;;;;;;;2.10;90.80;;;;;;5081875;28;20499;-80
2022/03/01 08:25:58;;;;;;;;;;;3.50;90.80;;;;;;5079531;28;19924;-80
2022/03/01 08:28:24;;;;;;;;;;;2.20;90.10;;;;;;5079779;28;20032;-80
2022/03/01 08:30:51;;;;;;;;;;;2.20;90.10;;;;;;5080157;28;20067;-80
2022/03/01 08:33:18;;;;;;;;;;;2.20;89.40;;;;;;5081677;28;19912;-79
2022/03/01 08:35:44;;;;;;;;;;;2.40;89.60;;;;;;5080136;28;19931;-80
2022/03/01 08:38:10;;;;;;;;;;;2.30;84.80;;;;;;5081296;28;20100;-79
2022/03/01 08:40:39;;;;;;;;;;;2.40;86.70;;;;;;5080975;28;19940;-80
2022/03/01 08:43:06;;;;;;;;;;;2.50;86.90;;;;;;5082192;28;19919;-80
2022/03/01 08:45:32;;;;;;;;;;;2.50;87.70;;;;;;5081366;28;19919;-80
2022/03/01 08:47:57;;;;;;;;;;;2.60;86.30;;;;;;5080660;28;19969;-80
2022/03/01 08:50:23;;;;;;;;;;;2.50;85.60;;;;;;5081764;28;19930;-80
2022/03/01 08:52:49;;;;;;;;;;;2.80;86.20;;;;;;5081683;28;19939;-81
2022/03/01 08:55:14;;;;;;;;;;;2.80;84.50;;;;;;5080748;28;19999;-78
2022/03/01 08:57:40;;;;;;;;;;;3.00;84.60;;;;;;5079537;28;20008;-78
2022/03/01 09:00:08;;;;;;;;;;;3.10;84.40;;;;;;5081816;28;20418;-81
2022/03/01 09:02:33;;;;;;;;;;;3.10;82.80;;;;;;5081356;28;19948;-80
2022/03/01 09:04:59;;;;;;;;;;;3.10;84.10;;;;;;5079837;28;19959;-80
2022/03/01 09:07:25;;;;;;;;;;;3.10;84.50;;;;;;5079647;28;19960;-81
2022/03/01 09:09:51;;;;;;;;;;;3.10;84.60;;;;;;5079121;28;19908;-81
2022/03/01 09:12:16;;;;;;;;;;;3.10;84.20;;;;;;5081323;28;19914;-80
2022/03/01 09:14:42;;;;;;;;;;;3.20;84.30;;;;;;5079714;28;19953;-80
2022/03/01 09:17:07;;;;;;;;;;;3.30;79.50;;;;;;5081226;28;19918;-80
2022/03/01 09:19:33;;;;;;;;;;;3.30;81.00;;;;;;5081844;28;20421;-82
2022/03/01 09:21:59;;;;;;;;;;;3.30;81.90;;;;;;5080904;28;20115;-79
2022/03/01 09:24:24;;;;;;;;;;;3.30;83.10;;;;;;5082626;28;19909;-78
2022/03/01 09:26:50;;;;;;;;;;;3.30;80.80;;;;;;5085424;28;20200;-79
2022/03/01 09:29:15;;;;;;;;;;;2.70;81.90;;;;;;5082070;28;20400;-79
2022/03/01 09:31:41;;;;;;;;;;;3.10;80.70;;;;;;5082318;28;20327;-80
2022/03/01 09:34:07;;;;;;;;;;;3.00;80.00;;;;;;5083601;28;19912;-81
2022/03/01 09:36:32;;;;;;;;;;;2.80;83.40;;;;;;5085269;28;20210;-79
2022/03/01 09:38:58;;;;;;;;;;;2.80;82.70;;;;;;5084880;28;19986;-81
2022/03/01 09:41:23;;;;;;;;;;;2.70;83.50;;;;;;5084301;28;19962;-81
2022/03/01 09:43:50;;;;;;;;;;;2.70;83.40;;;;;;5083337;28;19919;-80
2022/03/01 09:46:16;;;;;;;;;;;2.80;82.00;;;;;;5081673;28;19917;-79
2022/03/01 09:48:42;;;;;;;;;;;2.80;83.00;;;;;;5081348;28;19965;-79
2022/03/01 09:51:09;;;;;;;;;;;2.90;82.20;;;;;;5081983;28;20243;-80
2022/03/01 09:53:35;;;;;;;;;;;2.90;81.90;;;;;;5083377;28;19908;-82
2022/03/01 09:56:02;;;;;;;;;;;2.80;82.20;;;;;;5081150;28;19923;-80
2022/03/01 09:58:28;;;;;;;;;;;2.80;82.70;;;;;;5080088;28;19908;-80
2022/03/01 10:00:54;;;;;;;;;;;2.80;82.40;;;;;;5080735;28;20170;-79
2022/03/01 10:03:22;;;;;;;;;;;2.80;82.10;;;;;;5079821;28;20272;-81
2022/03/01 10:05:48;;;;;;;;;;;2.80;80.30;;;;;;5081203;28;20268;-81
2022/03/01 10:08:15;;;;;;;;;;;2.80;81.30;;;;;;5081795;28;20203;-80
2022/03/01 10:10:47;;;;;;;;;;;2.80;80.30;;;;;;5085391;28;20501;-79
2022/03/01 10:13:21;;;;;;;;;;;2.80;81.00;;;;;;5086095;28;19931;-80
2022/03/01 10:15:49;;;;;;;;;;;2.80;80.10;;;;;;5083289;28;19933;-80
2022/03/01 10:18:15;;;;;;;;;;;2.80;83.00;;;;;;5081944;28;20214;-79
2022/03/01 10:20:44;;;;;;;;;;;2.80;83.30;;;;;;5079328;28;20108;-80
2022/03/01 10:23:10;;;;;;;;;;;3.70;83.30;;;;;;5081450;28;20158;-80
2022/03/01 10:25:36;;;;;;;;;;;2.90;82.40;;;;;;5079751;28;20042;-78
2022/03/01 10:28:03;;;;;;;;;;;3.30;82.10;;;;;;5081726;28;20299;-79
2022/03/01 10:30:29;;;;;;;;;;;2.80;80.40;;;;;;5082077;28;19913;-80
2022/03/01 10:33:12;;;;;;;;;;;2.80;81.30;;;;;;5083599;28;19923;-80
2022/03/01 10:35:40;;;;;;;;;;;2.60;79.30;;;;;;5081950;28;19908;-79
2022/03/01 10:38:06;;;;;;;;;;;2.60;79.90;;;;;;5081218;28;19915;-80
2022/03/01 10:40:33;;;;;;;;;;;2.60;80.60;;;;;;5080258;28;20192;-79
2022/03/01 10:43:09;;;;;;;;;;;2.60;81.80;;;;;;5080758;28;19908;-79
2022/03/01 10:45:37;;;;;;;;;;;2.60;83.60;;;;;;5080480;28;19927;-80
2022/03/01 10:48:03;;;;;;;;;;;2.50;84.70;;;;;;5081221;28;20038;-79
2022/03/01 10:50:29;;;;;;;;;;;2.50;84.70;;;;;;5080458;28;19912;-80
2022/03/01 10:52:55;;;;;;;;;;;2.60;84.60;;;;;;5081373;28;19908;-79
2022/03/01 10:55:22;;;;;;;;;;;2.50;85.00;;;;;;5079746;28;19916;-80
2022/03/01 10:57:58;;;;;;;;;;;2.60;86.10;;;;;;5081009;28;20188;-80
2022/03/01 11:00:23;;;;;;;;;;;2.80;86.00;;;;;;5079346;28;20061;-80
2022/03/01 11:02:50;;;;;;;;;;;2.90;84.10;;;;;;5079631;28;20556;-80
2022/03/01 11:05:15;;;;;;;;;;;3.10;82.00;;;;;;5081258;28;20151;-81
2022/03/01 11:07:41;;;;;;;;;;;4.70;81.80;;;;;;5081775;28;20022;-80
2022/03/01 11:10:07;;;;;;;;;;;3.70;81.50;;;;;;5080058;28;20031;-80
2022/03/01 11:12:33;;;;;;;;;;;4.20;77.60;;;;;;5089292;28;20021;-81
2022/03/01 11:15:07;;;;;;;;;;;4.60;73.50;;;;;;5091888;28;20440;-80
2022/03/01 11:17:45;;;;;;;;;;;4.80;71.40;;;;;;5092074;28;19940;-80
2022/03/01 11:20:13;;;;;;;;;;;4.90;73.80;;;;;;5090335;28;19908;-80
2022/03/01 11:22:42;;;;;;;;;;;4.90;70.00;;;;;;5084501;28;20523;-80
2022/03/01 11:25:27;;;;;;;;;;;4.80;70.80;;;;;;5081559;28;19929;-80
2022/03/01 11:28:00;;;;;;;;;;;4.60;72.60;;;;;;5082165;28;20066;-80
2022/03/01 11:30:33;;;;;;;;;;;4.40;71.40;;;;;;5081518;28;19919;-80
2022/03/01 11:32:59;;;;;;;;;;;4.30;74.00;;;;;;5082844;28;20296;-79
2022/03/01 11:35:29;;;;;;;;;;;4.40;76.00;;;;;;5082721;28;19957;-79
2022/03/01 11:38:01;;;;;;;;;;;4.00;73.60;;;;;;5081826;28;20371;-79
2022/03/01 11:40:29;;;;;;;;;;;4.00;72.80;;;;;;5081436;28;19958;-80
2022/03/01 11:43:05;;;;;;;;;;;3.90;74.60;;;;;;5082494;28;20580;-80
2022/03/01 11:45:34;;;;;;;;;;;3.80;74.50;;;;;;5081200;28;20365;-80
2022/03/01 11:48:04;;;;;;;;;;;3.80;75.90;;;;;;5082959;28;19966;-80
2022/03/01 11:50:32;;;;;;;;;;;3.80;75.20;;;;;;5082333;28;19938;-79
2022/03/01 11:53:06;;;;;;;;;;;3.70;78.30;;;;;;5081470;28;20149;-80
2022/03/01 11:55:33;;;;;;;;;;;3.60;78.60;;;;;;5080439;28;19977;-79
2022/03/01 11:57:58;;;;;;;;;;;3.40;80.80;;;;;;5082085;28;19908;-80
2022/03/01 12:00:27;;;;;;;;;;;3.20;82.70;;;;;;5083087;28;20211;-79
2022/03/01 12:02:53;;;;;;;;;;;3.10;84.10;;;;;;5080972;28;20073;-79
2022/03/01 12:05:20;;;;;;;;;;;3.00;86.20;;;;;;5081328;28;19927;-80
2022/03/01 12:07:46;;;;;;;;;;;3.00;86.10;;;;;;5080363;28;20443;-80
2022/03/01 12:10:19;;;;;;;;;;;3.10;85.50;;;;;;5080683;28;20190;-80
2022/03/01 12:12:45;;;;;;;;;;;3.10;86.60;;;;;;5082077;28;20007;-80
2022/03/01 12:15:12;;;;;;;;;;;3.30;87.20;;;;;;5082154;28;20414;-80
2022/03/01 12:17:48;;;;;;;;;;;3.50;85.40;;;;;;5080701;28;19909;-80
2022/03/01 12:20:15;;;;;;;;;;;3.80;83.40;;;;;;5082057;28;19908;-80
2022/03/01 12:22:51;;;;;;;;;;;4.20;80.10;;;;;;5087498;28;19956;-80
2022/03/01 12:25:16;;;;;;;;;;;4.60;81.00;;;;;;5087445;28;20127;-80
2022/03/01 12:27:43;;;;;;;;;;;5.10;81.00;;;;;;5082957;28;19908;-80
2022/03/01 12:30:09;;;;;;;;;;;5.50;73.30;;;;;;5082947;28;19951;-80
2022/03/01 12:32:34;;;;;;;;;;;5.60;73.80;;;;;;5083645;28;19937;-80
2022/03/01 12:35:00;;;;;;;;;;;5.70;70.80;;;;;;5083535;28;20371;-80
2022/03/01 12:37:27;;;;;;;;;;;5.60;70.10;;;;;;5083408;28;20410;-80
2022/03/01 12:39:53;;;;;;;;;;;5.50;69.50;;;;;;5083015;28;19908;-80
2022/03/01 12:42:21;;;;;;;;;;;5.30;67.80;;;;;;5083212;28;19916;-80
2022/03/01 12:44:46;;;;;;;;;;;4.80;69.80;;;;;;5082892;28;20034;-80
2022/03/01 12:47:12;;;;;;;;;;;5.40;72.60;;;;;;5083464;28;19908;-80
2022/03/01 12:49:38;;;;;;;;;;;4.40;72.90;;;;;;5085229;28;19919;-80
2022/03/01 12:52:04;;;;;;;;;;;4.30;74.20;;;;;;5087800;28;19908;-80
2022/03/01 12:54:30;;;;;;;;;;;4.00;72.80;;;;;;5087552;28;19926;-79
2022/03/01 12:56:57;;;;;;;;;;;4.90;75.30;;;;;;5087614;28;19912;-80
2022/03/01 12:59:24;;;;;;;;;;;5.00;74.90;;;;;;5088881;28;20097;-80
2022/03/01 13:01:53;;;;;;;;;;;3.80;75.50;;;;;;5088430;28;19912;-80
2022/03/01 13:04:22;;;;;;;;;;;3.80;75.50;;;;;;5088256;28;19919;-79
2022/03/01 13:06:48;;;;;;;;;;;2.30;76.20;;;;;;5086785;28;19916;-80
2022/03/01 13:09:14;;;;;;;;;;;3.70;77.90;;;;;;5088958;28;19983;-81
2022/03/01 13:11:40;;;;;;;;;;;3.70;77.90;;;;;;5084996;28;20034;-80
2022/03/01 13:14:07;;;;;;;;;;;3.90;77.90;;;;;;5081044;28;19951;-80
2022/03/01 13:16:35;;;;;;;;;;;4.20;76.20;;;;;;5083178;28;19912;-80
2022/03/01 13:19:03;;;;;;;;;;;4.40;75.40;;;;;;5082501;28;19908;-79
2022/03/01 13:21:30;;;;;;;;;;;4.50;73.00;;;;;;5082397;28;19912;-80
2022/03/01 13:23:57;;;;;;;;;;;4.50;73.20;;;;;;5082548;28;19923;-80
2022/03/01 13:26:23;;;;;;;;;;;4.90;74.80;;;;;;5081654;28;19931;-79
2022/03/01 13:28:48;;;;;;;;;;;5.30;74.00;;;;;;5081641;28;19912;-80
2022/03/01 13:31:26;;;;;;;;;;;5.60;72.60;;;;;;5081546;28;20322;-79
2022/03/01 13:33:53;;;;;;;;;;;4.60;71.10;;;;;;5081591;28;20459;-80
2022/03/01 13:36:18;;;;;;;;;;;5.60;69.80;;;;;;5080484;28;19919;-79
2022/03/01 13:38:54;;;;;;;;;;;5.60;69.70;;;;;;5081307;28;19908;-80
2022/03/01 13:41:24;;;;;;;;;;;5.40;70.10;;;;;;5081015;28;20402;-79
2022/03/01 13:43:49;;;;;;;;;;;5.30;70.40;;;;;;5081483;28;19931;-79
2022/03/01 13:46:15;;;;;;;;;;;5.20;70.30;;;;;;5081001;28;20212;-80
2022/03/01 13:48:41;;;;;;;;;;;5.10;72.00;;;;;;5082605;28;19966;-79
2022/03/01 13:51:08;;;;;;;;;;;5.20;71.90;;;;;;5081022;28;19908;-80
2022/03/01 13:53:34;;;;;;;;;;;5.20;70.40;;;;;;5080471;28;19919;-80
2022/03/01 13:56:00;;;;;;;;;;;5.10;70.80;;;;;;5082420;28;19947;-80
2022/03/01 13:58:27;;;;;;;;;;;5.00;70.60;;;;;;5082267;28;20495;-80
2022/03/01 14:00:54;;;;;;;;;;;4.90;71.90;;;;;;5081755;28;20375;-80
2022/03/01 14:03:30;;;;;;;;;;;4.80;71.50;;;;;;5083161;28;20296;-79
2022/03/01 14:05:57;;;;;;;;;;;4.80;72.00;;;;;;5080649;28;19917;-80
2022/03/01 14:08:23;;;;;;;;;;;4.60;72.80;;;;;;5080602;28;19915;-80
2022/03/01 14:10:56;;;;;;;;;;;4.40;73.10;;;;;;5078934;28;19946;-80
2022/03/01 14:13:25;;;;;;;;;;;4.20;74.80;;;;;;5080711;28;19934;-80
2022/03/01 14:15:52;;;;;;;;;;;4.10;76.00;;;;;;5081147;28;20208;-80
2022/03/01 14:18:19;;;;;;;;;;;4.10;77.00;;;;;;5088371;28;20465;-80
2022/03/01 14:20:47;;;;;;;;;;;4.00;76.20;;;;;;5089595;28;19912;-79
2022/03/01 14:23:14;;;;;;;;;;;4.00;76.50;;;;;;5089929;28;20059;-80
2022/03/01 14:25:39;;;;;;;;;;;4.20;77.40;;;;;;5089636;28;20266;-79
2022/03/01 14:28:05;;;;;;;;;;;4.10;77.80;;;;;;5084664;28;19908;-80